sensor_id;sensor_type;location;lat;lon;timestamp;temperature;humidity
18794;DHT22;29610;49.022;12.114;2022-08-03T00:00:38;20.70;90.70
18794;DHT22;29610;49.022;12.114;2022-08-03T00:03:07;20.60;90.80
18794;DHT22;29610;49.022;12.114;2022-08-03T00:05:35;20.60;90.80
18794;DHT22;29610;49.022;12.114;2022-08-03T00:08:04;20.50;90.80
18794;DHT22;29610;49.022;12.114;2022-08-03T00:10:33;20.50;91.00
18794;DHT22;29610;49.022;12.114;2022-08-03T00:13:03;20.50;91.10
18794;DHT22;29610;49.022;12.114;2022-08-03T00:15:31;20.50;91.10
18794;DHT22;29610;49.022;12.114;2022-08-03T00:18:01;20.50;91.20
18794;DHT22;29610;49.022;12.114;2022-08-03T00:20:29;20.50;91.30
18794;DHT22;29610;49.022;12.114;2022-08-03T00:22:58;20.40;91.40
18794;DHT22;29610;49.022;12.114;2022-08-03T00:25:26;20.40;91.60
18794;DHT22;29610;49.022;12.114;2022-08-03T00:27:55;20.40;91.60
18794;DHT22;29610;49.022;12.114;2022-08-03T00:30:25;20.30;91.70
18794;DHT22;29610;49.022;12.114;2022-08-03T00:32:57;20.30;91.90
18794;DHT22;29610;49.022;12.114;2022-08-03T00:35:27;20.30;92.00
18794;DHT22;29610;49.022;12.114;2022-08-03T00:38:03;20.30;92.20
18794;DHT22;29610;49.022;12.114;2022-08-03T00:40:32;20.20;92.30
18794;DHT22;29610;49.022;12.114;2022-08-03T00:43:03;20.20;92.50
18794;DHT22;29610;49.022;12.114;2022-08-03T00:45:36;20.20;92.60
18794;DHT22;29610;49.022;12.114;2022-08-03T00:48:09;20.20;92.80
18794;DHT22;29610;49.022;12.114;2022-08-03T00:50:59;20.10;92.90
18794;DHT22;29610;49.022;12.114;2022-08-03T00:53:31;20.10;93.10
18794;DHT22;29610;49.022;12.114;2022-08-03T00:56:04;20.10;93.20
18794;DHT22;29610;49.022;12.114;2022-08-03T00:58:33;20.00;93.40
18794;DHT22;29610;49.022;12.114;2022-08-03T01:01:06;20.00;93.60
18794;DHT22;29610;49.022;12.114;2022-08-03T01:03:34;20.00;93.90
18794;DHT22;29610;49.022;12.114;2022-08-03T01:08:45;19.90;94.30
18794;DHT22;29610;49.022;12.114;2022-08-03T01:11:25;19.90;94.40
18794;DHT22;29610;49.022;12.114;2022-08-03T01:14:26;19.80;94.80
18794;DHT22;29610;49.022;12.114;2022-08-03T01:17:08;19.80;95.00
18794;DHT22;29610;49.022;12.114;2022-08-03T01:19:46;19.70;95.20
18794;DHT22;29610;49.022;12.114;2022-08-03T01:25:37;19.70;95.70
18794;DHT22;29610;49.022;12.114;2022-08-03T01:28:44;19.60;95.90
18794;DHT22;29610;49.022;12.114;2022-08-03T01:31:28;19.60;96.10
18794;DHT22;29610;49.022;12.114;2022-08-03T01:34:25;19.60;96.30
18794;DHT22;29610;49.022;12.114;2022-08-03T01:36:57;19.50;96.60
18794;DHT22;29610;49.022;12.114;2022-08-03T01:39:28;19.50;96.90
18794;DHT22;29610;49.022;12.114;2022-08-03T01:42:03;19.40;97.00
18794;DHT22;29610;49.022;12.114;2022-08-03T01:44:37;19.40;97.20
18794;DHT22;29610;49.022;12.114;2022-08-03T01:47:10;19.30;97.40
18794;DHT22;29610;49.022;12.114;2022-08-03T01:49:42;19.30;97.70
18794;DHT22;29610;49.022;12.114;2022-08-03T01:52:13;19.30;97.90
18794;DHT22;29610;49.022;12.114;2022-08-03T01:54:50;19.30;98.20
18794;DHT22;29610;49.022;12.114;2022-08-03T01:57:21;19.20;98.60
18794;DHT22;29610;49.022;12.114;2022-08-03T01:59:55;19.20;98.50
18794;DHT22;29610;49.022;12.114;2022-08-03T02:02:26;19.10;98.70
18794;DHT22;29610;49.022;12.114;2022-08-03T02:05:03;19.10;99.00
18794;DHT22;29610;49.022;12.114;2022-08-03T02:07:39;19.10;99.40
18794;DHT22;29610;49.022;12.114;2022-08-03T02:10:11;19.10;99.50
18794;DHT22;29610;49.022;12.114;2022-08-03T02:12:42;19.00;99.80
18794;DHT22;29610;49.022;12.114;2022-08-03T02:15:18;19.00;99.90
18794;DHT22;29610;49.022;12.114;2022-08-03T02:17:50;18.90;99.90
18794;DHT22;29610;49.022;12.114;2022-08-03T02:20:22;18.90;99.90
18794;DHT22;29610;49.022;12.114;2022-08-03T02:22:52;19.00;99.90
18794;DHT22;29610;49.022;12.114;2022-08-03T02:25:21;18.90;99.90
18794;DHT22;29610;49.022;12.114;2022-08-03T02:27:54;18.80;99.90
18794;DHT22;29610;49.022;12.114;2022-08-03T02:30:30;18.80;99.90
18794;DHT22;29610;49.022;12.114;2022-08-03T02:33:08;18.80;99.90
18794;DHT22;29610;49.022;12.114;2022-08-03T02:35:39;18.70;99.90
18794;DHT22;29610;49.022;12.114;2022-08-03T02:38:11;18.70;99.90
18794;DHT22;29610;49.022;12.114;2022-08-03T02:40:43;18.60;99.90
18794;DHT22;29610;49.022;12.114;2022-08-03T02:43:17;18.60;99.90
18794;DHT22;29610;49.022;12.114;2022-08-03T02:45:50;18.60;99.90
18794;DHT22;29610;49.022;12.114;2022-08-03T02:48:28;18.50;99.90
18794;DHT22;29610;49.022;12.114;2022-08-03T02:51:00;18.50;99.90
18794;DHT22;29610;49.022;12.114;2022-08-03T02:53:32;18.50;99.90
18794;DHT22;29610;49.022;12.114;2022-08-03T02:56:05;18.40;99.90
18794;DHT22;29610;49.022;12.114;2022-08-03T02:58:36;18.40;99.90
18794;DHT22;29610;49.022;12.114;2022-08-03T03:01:06;18.50;99.90
18794;DHT22;29610;49.022;12.114;2022-08-03T03:03:37;18.40;99.90
18794;DHT22;29610;49.022;12.114;2022-08-03T03:06:12;18.40;99.90
18794;DHT22;29610;49.022;12.114;2022-08-03T03:08:41;18.40;99.90
18794;DHT22;29610;49.022;12.114;2022-08-03T03:11:11;18.30;99.90
18794;DHT22;29610;49.022;12.114;2022-08-03T03:13:42;18.20;99.90
18794;DHT22;29610;49.022;12.114;2022-08-03T03:16:14;18.20;99.90
18794;DHT22;29610;49.022;12.114;2022-08-03T03:18:46;18.20;99.90
18794;DHT22;29610;49.022;12.114;2022-08-03T03:21:18;18.10;99.90
18794;DHT22;29610;49.022;12.114;2022-08-03T03:23:49;18.10;99.90
18794;DHT22;29610;49.022;12.114;2022-08-03T03:26:20;18.00;99.90
18794;DHT22;29610;49.022;12.114;2022-08-03T03:28:49;17.90;99.90
18794;DHT22;29610;49.022;12.114;2022-08-03T03:31:18;17.90;99.90
18794;DHT22;29610;49.022;12.114;2022-08-03T03:33:48;17.90;99.90
18794;DHT22;29610;49.022;12.114;2022-08-03T03:36:17;17.90;99.90
18794;DHT22;29610;49.022;12.114;2022-08-03T03:38:46;17.80;99.90
18794;DHT22;29610;49.022;12.114;2022-08-03T03:41:14;17.80;99.90
18794;DHT22;29610;49.022;12.114;2022-08-03T03:43:43;17.80;99.90
18794;DHT22;29610;49.022;12.114;2022-08-03T03:46:15;17.70;99.90
18794;DHT22;29610;49.022;12.114;2022-08-03T03:48:44;17.80;99.90
18794;DHT22;29610;49.022;12.114;2022-08-03T03:51:14;17.70;99.90
18794;DHT22;29610;49.022;12.114;2022-08-03T03:53:54;17.70;99.90
18794;DHT22;29610;49.022;12.114;2022-08-03T03:56:23;17.70;99.90
18794;DHT22;29610;49.022;12.114;2022-08-03T03:58:52;17.70;99.90
18794;DHT22;29610;49.022;12.114;2022-08-03T04:01:22;17.70;99.90
18794;DHT22;29610;49.022;12.114;2022-08-03T04:03:51;17.70;99.90
18794;DHT22;29610;49.022;12.114;2022-08-03T04:06:21;17.80;99.90
18794;DHT22;29610;49.022;12.114;2022-08-03T04:09:08;17.70;99.90
18794;DHT22;29610;49.022;12.114;2022-08-03T04:11:57;17.70;99.90
18794;DHT22;29610;49.022;12.114;2022-08-03T04:14:31;17.70;99.90
18794;DHT22;29610;49.022;12.114;2022-08-03T04:17:04;17.80;99.90
18794;DHT22;29610;49.022;12.114;2022-08-03T04:19:39;17.80;99.90
18794;DHT22;29610;49.022;12.114;2022-08-03T04:22:16;17.90;99.90
18794;DHT22;29610;49.022;12.114;2022-08-03T04:24:48;18.10;99.90
18794;DHT22;29610;49.022;12.114;2022-08-03T04:27:23;18.20;99.90
18794;DHT22;29610;49.022;12.114;2022-08-03T04:29:56;18.30;99.90
18794;DHT22;29610;49.022;12.114;2022-08-03T04:32:25;17.80;99.90
18794;DHT22;29610;49.022;12.114;2022-08-03T04:34:55;18.60;99.90
18794;DHT22;29610;49.022;12.114;2022-08-03T04:37:32;18.70;99.90
18794;DHT22;29610;49.022;12.114;2022-08-03T04:40:08;18.80;99.90
18794;DHT22;29610;49.022;12.114;2022-08-03T04:42:42;18.90;99.90
18794;DHT22;29610;49.022;12.114;2022-08-03T04:45:12;19.00;99.90
18794;DHT22;29610;49.022;12.114;2022-08-03T04:47:43;19.20;99.90
18794;DHT22;29610;49.022;12.114;2022-08-03T04:50:12;19.20;99.90
18794;DHT22;29610;49.022;12.114;2022-08-03T04:53:04;19.30;99.90
18794;DHT22;29610;49.022;12.114;2022-08-03T04:55:34;19.50;99.90
18794;DHT22;29610;49.022;12.114;2022-08-03T04:58:03;19.60;99.90
18794;DHT22;29610;49.022;12.114;2022-08-03T05:00:32;19.70;99.90
18794;DHT22;29610;49.022;12.114;2022-08-03T05:03:01;19.80;99.90
18794;DHT22;29610;49.022;12.114;2022-08-03T05:05:45;19.90;99.90
18794;DHT22;29610;49.022;12.114;2022-08-03T05:08:18;20.00;99.90
18794;DHT22;29610;49.022;12.114;2022-08-03T05:10:54;20.10;99.90
18794;DHT22;29610;49.022;12.114;2022-08-03T05:13:25;20.20;99.90
18794;DHT22;29610;49.022;12.114;2022-08-03T05:15:54;20.30;99.90
18794;DHT22;29610;49.022;12.114;2022-08-03T05:18:23;20.40;99.90
18794;DHT22;29610;49.022;12.114;2022-08-03T05:20:51;20.40;99.90
18794;DHT22;29610;49.022;12.114;2022-08-03T05:23:21;20.60;99.90
18794;DHT22;29610;49.022;12.114;2022-08-03T05:25:49;20.80;99.90
18794;DHT22;29610;49.022;12.114;2022-08-03T05:28:18;20.90;99.90
18794;DHT22;29610;49.022;12.114;2022-08-03T05:30:46;21.00;99.90
18794;DHT22;29610;49.022;12.114;2022-08-03T05:33:15;21.10;99.90
18794;DHT22;29610;49.022;12.114;2022-08-03T05:35:44;21.20;99.90
18794;DHT22;29610;49.022;12.114;2022-08-03T05:38:31;21.30;99.90
18794;DHT22;29610;49.022;12.114;2022-08-03T05:41:05;21.40;99.90
18794;DHT22;29610;49.022;12.114;2022-08-03T05:43:54;21.40;99.90
18794;DHT22;29610;49.022;12.114;2022-08-03T05:46:22;21.50;99.90
18794;DHT22;29610;49.022;12.114;2022-08-03T05:48:51;21.40;99.90
18794;DHT22;29610;49.022;12.114;2022-08-03T05:51:20;21.60;99.90
18794;DHT22;29610;49.022;12.114;2022-08-03T05:53:51;21.70;99.90
18794;DHT22;29610;49.022;12.114;2022-08-03T05:56:21;21.80;99.90
18794;DHT22;29610;49.022;12.114;2022-08-03T05:58:53;22.10;99.90
18794;DHT22;29610;49.022;12.114;2022-08-03T06:01:21;22.30;99.90
18794;DHT22;29610;49.022;12.114;2022-08-03T06:03:50;22.30;99.90
18794;DHT22;29610;49.022;12.114;2022-08-03T06:06:19;22.40;99.90
18794;DHT22;29610;49.022;12.114;2022-08-03T06:08:48;22.50;99.90
18794;DHT22;29610;49.022;12.114;2022-08-03T06:11:18;22.50;99.90
18794;DHT22;29610;49.022;12.114;2022-08-03T06:13:46;22.60;99.90
18794;DHT22;29610;49.022;12.114;2022-08-03T06:16:15;22.70;99.60
18794;DHT22;29610;49.022;12.114;2022-08-03T06:18:43;22.70;99.10
18794;DHT22;29610;49.022;12.114;2022-08-03T06:21:13;23.10;98.60
18794;DHT22;29610;49.022;12.114;2022-08-03T06:23:45;23.20;97.90
18794;DHT22;29610;49.022;12.114;2022-08-03T06:26:26;23.10;97.80
18794;DHT22;29610;49.022;12.114;2022-08-03T06:28:55;23.20;97.70
18794;DHT22;29610;49.022;12.114;2022-08-03T06:31:25;23.30;97.50
18794;DHT22;29610;49.022;12.114;2022-08-03T06:34:02;23.40;97.10
18794;DHT22;29610;49.022;12.114;2022-08-03T06:36:51;23.50;97.00
18794;DHT22;29610;49.022;12.114;2022-08-03T06:39:28;23.50;96.80
18794;DHT22;29610;49.022;12.114;2022-08-03T06:42:00;23.70;96.60
18794;DHT22;29610;49.022;12.114;2022-08-03T06:44:29;23.80;96.00
18794;DHT22;29610;49.022;12.114;2022-08-03T06:46:58;23.90;95.80
18794;DHT22;29610;49.022;12.114;2022-08-03T06:49:26;24.00;95.20
18794;DHT22;29610;49.022;12.114;2022-08-03T06:51:57;24.30;95.20
18794;DHT22;29610;49.022;12.114;2022-08-03T06:54:34;24.60;94.50
18794;DHT22;29610;49.022;12.114;2022-08-03T06:57:04;24.80;93.40
18794;DHT22;29610;49.022;12.114;2022-08-03T06:59:34;25.00;93.10
18794;DHT22;29610;49.022;12.114;2022-08-03T07:02:22;25.20;92.40
18794;DHT22;29610;49.022;12.114;2022-08-03T07:04:54;25.50;92.20
18794;DHT22;29610;49.022;12.114;2022-08-03T07:07:23;25.60;91.30
18794;DHT22;29610;49.022;12.114;2022-08-03T07:09:52;25.80;90.80
18794;DHT22;29610;49.022;12.114;2022-08-03T07:12:26;26.10;90.30
18794;DHT22;29610;49.022;12.114;2022-08-03T07:14:57;26.20;90.00
18794;DHT22;29610;49.022;12.114;2022-08-03T07:17:33;26.40;87.70
18794;DHT22;29610;49.022;12.114;2022-08-03T07:20:05;26.60;86.20
18794;DHT22;29610;49.022;12.114;2022-08-03T07:22:34;26.70;84.80
18794;DHT22;29610;49.022;12.114;2022-08-03T07:25:04;26.90;85.20
18794;DHT22;29610;49.022;12.114;2022-08-03T07:27:34;27.20;83.80
18794;DHT22;29610;49.022;12.114;2022-08-03T07:30:06;27.50;83.10
18794;DHT22;29610;49.022;12.114;2022-08-03T07:32:35;27.70;81.30
18794;DHT22;29610;49.022;12.114;2022-08-03T07:35:16;27.90;79.80
18794;DHT22;29610;49.022;12.114;2022-08-03T07:37:51;28.20;78.80
18794;DHT22;29610;49.022;12.114;2022-08-03T07:40:21;28.50;78.10
18794;DHT22;29610;49.022;12.114;2022-08-03T07:42:57;28.60;77.40
18794;DHT22;29610;49.022;12.114;2022-08-03T07:45:29;29.00;76.40
18794;DHT22;29610;49.022;12.114;2022-08-03T07:47:58;29.20;74.80
18794;DHT22;29610;49.022;12.114;2022-08-03T07:50:27;29.50;74.00
18794;DHT22;29610;49.022;12.114;2022-08-03T07:52:56;29.50;72.30
18794;DHT22;29610;49.022;12.114;2022-08-03T07:55:26;29.50;72.80
18794;DHT22;29610;49.022;12.114;2022-08-03T07:58:02;29.90;71.70
18794;DHT22;29610;49.022;12.114;2022-08-03T08:00:32;30.00;70.50
18794;DHT22;29610;49.022;12.114;2022-08-03T08:03:10;30.30;70.50
18794;DHT22;29610;49.022;12.114;2022-08-03T08:06:56;30.30;69.00
18794;DHT22;29610;49.022;12.114;2022-08-03T08:10:30;29.60;69.50
18794;DHT22;29610;49.022;12.114;2022-08-03T08:13:03;30.70;68.60
18794;DHT22;29610;49.022;12.114;2022-08-03T08:15:32;31.00;67.70
18794;DHT22;29610;49.022;12.114;2022-08-03T08:18:00;31.30;66.90
18794;DHT22;29610;49.022;12.114;2022-08-03T08:20:31;31.30;66.30
18794;DHT22;29610;49.022;12.114;2022-08-03T08:23:05;31.30;65.10
18794;DHT22;29610;49.022;12.114;2022-08-03T08:25:55;31.20;65.70
18794;DHT22;29610;49.022;12.114;2022-08-03T08:28:25;31.30;66.00
18794;DHT22;29610;49.022;12.114;2022-08-03T08:30:59;31.40;65.60
18794;DHT22;29610;49.022;12.114;2022-08-03T08:33:30;31.70;63.80
18794;DHT22;29610;49.022;12.114;2022-08-03T08:36:20;31.90;63.90
18794;DHT22;29610;49.022;12.114;2022-08-03T08:38:49;32.00;64.10
18794;DHT22;29610;49.022;12.114;2022-08-03T08:41:18;32.10;63.60
18794;DHT22;29610;49.022;12.114;2022-08-03T08:43:48;32.10;62.10
18794;DHT22;29610;49.022;12.114;2022-08-03T08:46:17;32.30;62.20
18794;DHT22;29610;49.022;12.114;2022-08-03T08:48:51;32.40;60.90
18794;DHT22;29610;49.022;12.114;2022-08-03T08:51:21;32.50;60.40
18794;DHT22;29610;49.022;12.114;2022-08-03T08:54:14;32.60;60.50
18794;DHT22;29610;49.022;12.114;2022-08-03T08:56:50;32.50;60.40
18794;DHT22;29610;49.022;12.114;2022-08-03T08:59:22;32.40;60.70
18794;DHT22;29610;49.022;12.114;2022-08-03T09:01:55;32.60;59.70
18794;DHT22;29610;49.022;12.114;2022-08-03T09:04:24;32.70;59.70
18794;DHT22;29610;49.022;12.114;2022-08-03T09:06:55;32.50;60.30
18794;DHT22;29610;49.022;12.114;2022-08-03T09:09:44;32.50;60.60
18794;DHT22;29610;49.022;12.114;2022-08-03T09:12:37;32.20;60.50
18794;DHT22;29610;49.022;12.114;2022-08-03T09:15:21;32.20;60.70
18794;DHT22;29610;49.022;12.114;2022-08-03T09:17:52;32.10;59.40
18794;DHT22;29610;49.022;12.114;2022-08-03T09:20:24;32.00;60.40
18794;DHT22;29610;49.022;12.114;2022-08-03T09:23:08;32.00;60.50
18794;DHT22;29610;49.022;12.114;2022-08-03T09:27:23;32.10;59.80
18794;DHT22;29610;49.022;12.114;2022-08-03T09:40:04;33.00;56.90
18794;DHT22;29610;49.022;12.114;2022-08-03T09:43:12;33.90;55.80
18794;DHT22;29610;49.022;12.114;2022-08-03T09:47:16;34.20;55.60
18794;DHT22;29610;49.022;12.114;2022-08-03T09:51:55;34.60;54.10
18794;DHT22;29610;49.022;12.114;2022-08-03T09:55:58;34.80;55.00
18794;DHT22;29610;49.022;12.114;2022-08-03T10:00:02;34.80;52.70
18794;DHT22;29610;49.022;12.114;2022-08-03T10:04:13;35.70;51.40
18794;DHT22;29610;49.022;12.114;2022-08-03T10:08:25;36.30;52.00
18794;DHT22;29610;49.022;12.114;2022-08-03T10:12:25;36.50;49.20
18794;DHT22;29610;49.022;12.114;2022-08-03T10:16:19;36.30;50.00
18794;DHT22;29610;49.022;12.114;2022-08-03T10:23:29;35.90;50.60
18794;DHT22;29610;49.022;12.114;2022-08-03T10:26:07;35.40;50.80
18794;DHT22;29610;49.022;12.114;2022-08-03T10:28:49;35.20;51.80
18794;DHT22;29610;49.022;12.114;2022-08-03T10:31:21;35.50;49.50
18794;DHT22;29610;49.022;12.114;2022-08-03T10:33:55;35.90;50.10
18794;DHT22;29610;49.022;12.114;2022-08-03T10:36:29;36.80;48.80
18794;DHT22;29610;49.022;12.114;2022-08-03T10:39:00;37.50;48.30
18794;DHT22;29610;49.022;12.114;2022-08-03T10:41:42;37.80;46.30
18794;DHT22;29610;49.022;12.114;2022-08-03T10:44:17;37.80;46.20
18794;DHT22;29610;49.022;12.114;2022-08-03T10:46:47;38.10;44.90
18794;DHT22;29610;49.022;12.114;2022-08-03T10:49:18;38.50;44.40
18794;DHT22;29610;49.022;12.114;2022-08-03T10:52:03;38.20;44.40
18794;DHT22;29610;49.022;12.114;2022-08-03T10:54:53;38.00;44.00
18794;DHT22;29610;49.022;12.114;2022-08-03T10:57:44;37.60;43.10
18794;DHT22;29610;49.022;12.114;2022-08-03T11:00:17;37.80;41.80
18794;DHT22;29610;49.022;12.114;2022-08-03T11:03:06;38.00;43.10
18794;DHT22;29610;49.022;12.114;2022-08-03T11:05:41;38.40;42.50
18794;DHT22;29610;49.022;12.114;2022-08-03T11:08:24;38.00;41.10
18794;DHT22;29610;49.022;12.114;2022-08-03T11:10:57;38.30;42.50
18794;DHT22;29610;49.022;12.114;2022-08-03T11:13:31;39.00;42.20
18794;DHT22;29610;49.022;12.114;2022-08-03T11:16:18;39.50;41.80
18794;DHT22;29610;49.022;12.114;2022-08-03T11:18:56;39.50;40.20
18794;DHT22;29610;49.022;12.114;2022-08-03T11:21:54;38.40;41.40
18794;DHT22;29610;49.022;12.114;2022-08-03T11:27:30;39.20;40.50
18794;DHT22;29610;49.022;12.114;2022-08-03T11:30:02;39.80;39.20
18794;DHT22;29610;49.022;12.114;2022-08-03T11:33:06;39.60;40.20
18794;DHT22;29610;49.022;12.114;2022-08-03T11:40:58;40.00;38.30
18794;DHT22;29610;49.022;12.114;2022-08-03T11:43:50;40.00;38.40
18794;DHT22;29610;49.022;12.114;2022-08-03T11:46:19;39.70;36.00
18794;DHT22;29610;49.022;12.114;2022-08-03T11:49:03;38.80;38.40
18794;DHT22;29610;49.022;12.114;2022-08-03T11:51:37;39.20;36.70
18794;DHT22;29610;49.022;12.114;2022-08-03T11:54:07;39.40;37.70
18794;DHT22;29610;49.022;12.114;2022-08-03T11:56:45;39.60;37.90
18794;DHT22;29610;49.022;12.114;2022-08-03T11:59:15;40.40;37.50
18794;DHT22;29610;49.022;12.114;2022-08-03T12:01:49;40.50;36.90
18794;DHT22;29610;49.022;12.114;2022-08-03T12:04:17;40.30;37.00
18794;DHT22;29610;49.022;12.114;2022-08-03T12:06:57;40.90;37.80
18794;DHT22;29610;49.022;12.114;2022-08-03T12:09:26;40.70;36.30
18794;DHT22;29610;49.022;12.114;2022-08-03T12:11:56;39.50;37.10
18794;DHT22;29610;49.022;12.114;2022-08-03T12:14:27;39.50;38.50
18794;DHT22;29610;49.022;12.114;2022-08-03T12:17:20;40.10;38.20
18794;DHT22;29610;49.022;12.114;2022-08-03T12:19:49;40.10;37.80
18794;DHT22;29610;49.022;12.114;2022-08-03T12:22:30;39.90;37.40
18794;DHT22;29610;49.022;12.114;2022-08-03T12:24:59;40.10;35.70
18794;DHT22;29610;49.022;12.114;2022-08-03T12:27:29;40.40;35.70
18794;DHT22;29610;49.022;12.114;2022-08-03T12:29:58;40.30;36.00
18794;DHT22;29610;49.022;12.114;2022-08-03T12:32:28;40.40;36.20
18794;DHT22;29610;49.022;12.114;2022-08-03T12:34:58;40.90;36.00
18794;DHT22;29610;49.022;12.114;2022-08-03T12:37:30;41.30;35.40
18794;DHT22;29610;49.022;12.114;2022-08-03T12:40:00;41.40;35.00
18794;DHT22;29610;49.022;12.114;2022-08-03T12:42:38;41.40;35.20
18794;DHT22;29610;49.022;12.114;2022-08-03T12:45:21;40.90;34.60
18794;DHT22;29610;49.022;12.114;2022-08-03T12:47:53;40.70;34.20
18794;DHT22;29610;49.022;12.114;2022-08-03T12:50:24;39.80;34.80
18794;DHT22;29610;49.022;12.114;2022-08-03T12:52:58;39.00;37.00
18794;DHT22;29610;49.022;12.114;2022-08-03T12:55:28;39.00;36.90
18794;DHT22;29610;49.022;12.114;2022-08-03T12:58:32;39.50;36.10
18794;DHT22;29610;49.022;12.114;2022-08-03T13:01:05;39.90;35.40
18794;DHT22;29610;49.022;12.114;2022-08-03T13:03:40;39.80;35.00
18794;DHT22;29610;49.022;12.114;2022-08-03T13:06:19;39.60;34.10
18794;DHT22;29610;49.022;12.114;2022-08-03T13:09:01;39.70;34.80
18794;DHT22;29610;49.022;12.114;2022-08-03T13:11:31;40.10;35.20
18794;DHT22;29610;49.022;12.114;2022-08-03T13:14:21;40.40;34.40
18794;DHT22;29610;49.022;12.114;2022-08-03T13:16:52;40.30;35.00
18794;DHT22;29610;49.022;12.114;2022-08-03T13:19:24;39.40;34.20
18794;DHT22;29610;49.022;12.114;2022-08-03T13:21:53;39.50;35.00
18794;DHT22;29610;49.022;12.114;2022-08-03T13:24:31;39.80;33.50
18794;DHT22;29610;49.022;12.114;2022-08-03T13:27:00;40.30;33.60
18794;DHT22;29610;49.022;12.114;2022-08-03T13:29:52;40.80;32.70
18794;DHT22;29610;49.022;12.114;2022-08-03T13:32:22;41.00;33.20
18794;DHT22;29610;49.022;12.114;2022-08-03T13:34:51;41.10;32.40
18794;DHT22;29610;49.022;12.114;2022-08-03T13:37:19;40.90;32.80
18794;DHT22;29610;49.022;12.114;2022-08-03T13:39:49;41.00;33.30
18794;DHT22;29610;49.022;12.114;2022-08-03T13:42:28;40.40;33.70
18794;DHT22;29610;49.022;12.114;2022-08-03T13:44:59;40.30;34.10
18794;DHT22;29610;49.022;12.114;2022-08-03T13:47:28;39.20;34.00
18794;DHT22;29610;49.022;12.114;2022-08-03T13:49:57;39.80;34.50
18794;DHT22;29610;49.022;12.114;2022-08-03T13:52:31;39.10;34.40
18794;DHT22;29610;49.022;12.114;2022-08-03T13:55:04;39.10;35.70
18794;DHT22;29610;49.022;12.114;2022-08-03T13:57:34;39.50;35.30
18794;DHT22;29610;49.022;12.114;2022-08-03T14:00:24;39.70;34.80
18794;DHT22;29610;49.022;12.114;2022-08-03T14:06:07;39.80;33.30
18794;DHT22;29610;49.022;12.114;2022-08-03T14:08:36;39.00;33.40
18794;DHT22;29610;49.022;12.114;2022-08-03T14:11:04;39.30;34.30
18794;DHT22;29610;49.022;12.114;2022-08-03T14:13:46;39.20;33.90
18794;DHT22;29610;49.022;12.114;2022-08-03T14:17:28;39.20;33.80
18794;DHT22;29610;49.022;12.114;2022-08-03T14:21:26;39.30;34.70
18794;DHT22;29610;49.022;12.114;2022-08-03T14:24:40;39.10;34.60
18794;DHT22;29610;49.022;12.114;2022-08-03T14:27:22;37.80;34.50
18794;DHT22;29610;49.022;12.114;2022-08-03T14:29:51;36.90;36.00
18794;DHT22;29610;49.022;12.114;2022-08-03T14:32:24;36.50;36.90
18794;DHT22;29610;49.022;12.114;2022-08-03T14:34:53;36.40;37.50
18794;DHT22;29610;49.022;12.114;2022-08-03T14:37:21;36.00;37.80
18794;DHT22;29610;49.022;12.114;2022-08-03T14:39:50;35.80;37.40
18794;DHT22;29610;49.022;12.114;2022-08-03T14:42:27;35.90;38.30
18794;DHT22;29610;49.022;12.114;2022-08-03T14:44:55;36.20;37.30
18794;DHT22;29610;49.022;12.114;2022-08-03T14:47:33;35.80;37.80
18794;DHT22;29610;49.022;12.114;2022-08-03T14:50:21;35.60;37.90
18794;DHT22;29610;49.022;12.114;2022-08-03T14:53:06;35.30;38.20
18794;DHT22;29610;49.022;12.114;2022-08-03T14:55:35;34.90;39.20
18794;DHT22;29610;49.022;12.114;2022-08-03T14:58:17;34.90;39.10
18794;DHT22;29610;49.022;12.114;2022-08-03T15:00:48;34.70;38.70
18794;DHT22;29610;49.022;12.114;2022-08-03T15:03:21;34.20;38.60
18794;DHT22;29610;49.022;12.114;2022-08-03T15:05:51;34.00;39.90
18794;DHT22;29610;49.022;12.114;2022-08-03T15:08:21;34.00;39.30
18794;DHT22;29610;49.022;12.114;2022-08-03T15:10:51;34.00;40.10
18794;DHT22;29610;49.022;12.114;2022-08-03T15:13:29;34.10;39.50
18794;DHT22;29610;49.022;12.114;2022-08-03T15:16:05;34.00;39.50
18794;DHT22;29610;49.022;12.114;2022-08-03T15:18:36;33.80;40.20
18794;DHT22;29610;49.022;12.114;2022-08-03T15:21:05;33.90;39.40
18794;DHT22;29610;49.022;12.114;2022-08-03T15:23:55;33.90;40.00
18794;DHT22;29610;49.022;12.114;2022-08-03T15:26:24;33.90;40.30
18794;DHT22;29610;49.022;12.114;2022-08-03T15:29:00;33.90;40.40
18794;DHT22;29610;49.022;12.114;2022-08-03T15:31:29;33.80;39.70
18794;DHT22;29610;49.022;12.114;2022-08-03T15:33:59;33.80;39.40
18794;DHT22;29610;49.022;12.114;2022-08-03T15:36:28;33.60;39.30
18794;DHT22;29610;49.022;12.114;2022-08-03T15:38:56;33.30;38.90
18794;DHT22;29610;49.022;12.114;2022-08-03T15:41:25;33.10;39.30
18794;DHT22;29610;49.022;12.114;2022-08-03T15:43:54;33.10;42.00
18794;DHT22;29610;49.022;12.114;2022-08-03T15:46:23;33.20;40.80
18794;DHT22;29610;49.022;12.114;2022-08-03T15:48:56;33.30;40.60
18794;DHT22;29610;49.022;12.114;2022-08-03T15:51:26;33.20;40.60
18794;DHT22;29610;49.022;12.114;2022-08-03T15:53:55;33.10;40.30
18794;DHT22;29610;49.022;12.114;2022-08-03T15:56:24;33.20;40.40
18794;DHT22;29610;49.022;12.114;2022-08-03T15:58:53;33.40;40.20
18794;DHT22;29610;49.022;12.114;2022-08-03T16:01:39;33.30;39.90
18794;DHT22;29610;49.022;12.114;2022-08-03T16:04:08;33.10;40.10
18794;DHT22;29610;49.022;12.114;2022-08-03T16:06:38;33.30;40.80
18794;DHT22;29610;49.022;12.114;2022-08-03T16:09:07;33.20;38.80
18794;DHT22;29610;49.022;12.114;2022-08-03T16:11:56;32.70;38.60
18794;DHT22;29610;49.022;12.114;2022-08-03T16:14:24;32.80;41.00
18794;DHT22;29610;49.022;12.114;2022-08-03T16:17:02;33.10;41.20
18794;DHT22;29610;49.022;12.114;2022-08-03T16:19:31;33.50;40.10
18794;DHT22;29610;49.022;12.114;2022-08-03T16:22:03;33.90;40.00
18794;DHT22;29610;49.022;12.114;2022-08-03T16:24:32;34.20;38.40
18794;DHT22;29610;49.022;12.114;2022-08-03T16:27:03;34.20;38.20
18794;DHT22;29610;49.022;12.114;2022-08-03T16:29:43;34.30;39.00
18794;DHT22;29610;49.022;12.114;2022-08-03T16:32:12;34.40;37.90
18794;DHT22;29610;49.022;12.114;2022-08-03T16:34:41;34.40;37.80
18794;DHT22;29610;49.022;12.114;2022-08-03T16:37:11;34.60;38.00
18794;DHT22;29610;49.022;12.114;2022-08-03T16:39:59;35.00;36.80
18794;DHT22;29610;49.022;12.114;2022-08-03T16:42:28;35.00;36.50
18794;DHT22;29610;49.022;12.114;2022-08-03T16:44:57;35.60;36.70
18794;DHT22;29610;49.022;12.114;2022-08-03T16:47:25;35.90;35.60